Airfield :
LOGIN :

Register | Disclaimer

   EN    FR    IT 

 










Legend :    VFR   Marginal VFR   IFR   Intensive IFR   Very Intensive IFR
Visi :
Ceiling :
>= 8 km
>= 3000ft
5 to 8 km
1000 to 3000 ft
1500m to 5 km
500 to 1000 ft
800 to 1500m
200 to 500 ft
< 800m
< 200 ft
Symbols :   Thunderstorms  Fog  Heavy snow  Heavy precipitations  Wind > 20 kt
SIGMETs :     Misc.  Thunderstorms  Icing  Turbulence  Mountain Waves  Volcanic Ashes






- Airport Elevation : 231 ft
- IATA code : WTN


EGXW - RAF Waddington

CURRENT METAR :
  • 211420Z 35011KT 9999 FEW016 SCT022 BKN038 11/08 Q1021 TEMPO FEW016 SCT025 RMK WHT TEMPO BLU

EXPIRED METARs :
  • 211350Z 33010KT 9999 FEW016 BKN022 BKN040 11/08 Q1021 NOSIG RMK WHT WHT
  • 211323Z 33009KT 9999 SCT013 BKN022 BKN042 11/09 Q1021 TEMPO SCT015 RMK GRN TEMPO WHT
  • 211250Z 36010KT 9999 -RA SCT015 BKN025 OVC035 11/08 Q1021 TEMPO FEW015 BKN025 RMK WHT TEMPO BLU
  • 211220Z 36012KT 9999 FEW014 BKN025 BKN042 11/08 Q1021 TEMPO SCT014 RMK BLU TEMPO GRN
  • 211150Z 01010KT 9999 -RA SCT014 BKN042 11/09 Q1021 TEMPO SCT015 RMK GRN TEMPO WHT

TAF TAF EGXW
Valid from the 21 at 15:00 until the 22 at 09:00 UTC


211350Z 2115/2209 36012KT 9999 BKN040
TEMPO 2115/2120 SCT020
PROB40
TEMPO 2115/2120 SCT014
PROB40 2200/2208 5000 BR
PROB30 2203/2206 3000



MET'MAP, your aeronautical weather chart ! - Copyright ORBIFLY December 2007 - Disclaimer

ORBIFLY MET'MAP TEAM :

Programming & Development : Alexandra Zaïnal
Concept & Development : Baudouin d'Aumeries
Co-Development & Prog : Marc-Olivier Méhu
Technical & hardware support : Manuel Goepfert

Contact : metmap@orbifly.com




SOURCES & CREDITS :

   NOAA